createdAt,value
2022-08-31T10:35:56.973Z,4.50
2022-08-31T10:36:56.959Z,4.10
2022-08-31T10:37:56.942Z,4.20
2022-08-31T10:38:56.925Z,4.40
2022-08-31T10:39:56.908Z,4.30
2022-08-31T10:40:56.898Z,4.10
2022-08-31T10:41:56.879Z,4.30
2022-08-31T10:42:56.859Z,4.50
2022-08-31T10:43:56.843Z,4.40
2022-08-31T10:44:56.846Z,4.50
2022-08-31T10:45:56.858Z,4.70
2022-08-31T10:46:56.807Z,4.80
2022-08-31T10:47:56.789Z,4.50
2022-08-31T10:48:56.779Z,3.70
2022-08-31T10:49:56.759Z,4.00
2022-08-31T10:50:56.768Z,4.50
2022-08-31T10:51:56.751Z,3.90
2022-08-31T10:53:01.841Z,4.40
2022-08-31T10:53:56.711Z,4.00
2022-08-31T10:54:56.692Z,4.20
2022-08-31T10:55:56.691Z,3.30
2022-08-31T10:56:56.670Z,3.90
2022-08-31T10:57:56.650Z,4.40
2022-08-31T10:58:56.637Z,3.50
2022-08-31T10:59:56.626Z,3.50
2022-08-31T11:00:56.667Z,3.70
2022-08-31T11:01:56.610Z,3.60
2022-08-31T11:02:56.586Z,3.70
2022-08-31T11:03:56.587Z,3.90
2022-08-31T11:04:56.624Z,3.20
2022-08-31T11:05:56.593Z,3.70
2022-08-31T11:06:56.536Z,3.60
2022-08-31T11:07:56.550Z,3.10
2022-08-31T11:08:56.518Z,3.70
2022-08-31T11:09:56.497Z,3.80
2022-08-31T11:10:56.492Z,3.50
2022-08-31T11:11:56.490Z,3.50
2022-08-31T11:12:57.593Z,3.40
2022-08-31T11:13:56.450Z,4.20
2022-08-31T11:14:56.447Z,3.50
2022-08-31T11:15:56.471Z,3.60
2022-08-31T11:16:56.429Z,3.80
2022-08-31T11:17:56.391Z,3.70
2022-08-31T11:18:56.385Z,3.50
2022-08-31T11:19:56.379Z,3.70
2022-08-31T11:20:56.354Z,3.50
2022-08-31T11:21:56.356Z,3.40
2022-08-31T11:22:56.328Z,3.70
2022-08-31T11:23:56.328Z,3.70
2022-08-31T11:24:56.305Z,3.30
2022-08-31T11:25:56.293Z,3.60
2022-08-31T11:26:56.298Z,3.50
2022-08-31T11:27:56.270Z,3.30
2022-08-31T11:28:56.257Z,3.80
2022-08-31T11:29:56.234Z,3.90
2022-08-31T11:30:56.327Z,3.20
2022-08-31T11:31:56.227Z,3.60
2022-08-31T11:32:56.198Z,3.50
2022-08-31T11:34:15.055Z,3.80
2022-08-31T11:34:56.172Z,3.40
2022-08-31T11:35:56.170Z,3.60
2022-08-31T11:36:56.163Z,3.40
2022-08-31T11:37:56.231Z,3.50
2022-08-31T11:38:56.129Z,3.50
2022-08-31T11:39:56.120Z,3.70
2022-08-31T11:40:56.099Z,3.20
2022-08-31T11:41:56.164Z,3.40
2022-08-31T11:42:56.075Z,3.50
2022-08-31T11:43:56.055Z,3.40
2022-08-31T11:44:56.041Z,3.40
2022-08-31T11:45:56.107Z,3.60
2022-08-31T11:46:56.028Z,3.70
2022-08-31T11:47:56.014Z,3.50
2022-08-31T11:48:56.005Z,4.10
2022-08-31T11:49:55.979Z,3.00
2022-08-31T11:50:55.970Z,3.30
2022-08-31T11:51:55.965Z,3.80
2022-08-31T11:52:55.946Z,3.70
2022-08-31T11:53:55.936Z,3.50
2022-08-31T11:54:55.925Z,3.40
2022-08-31T11:55:55.913Z,3.30
2022-08-31T11:56:55.911Z,3.40
2022-08-31T11:57:55.875Z,3.40
2022-08-31T11:58:55.863Z,3.30
2022-08-31T11:59:55.853Z,3.50
2022-08-31T12:00:55.851Z,3.80
2022-08-31T12:01:55.851Z,3.00
2022-08-31T12:02:55.859Z,3.40
2022-08-31T12:03:55.800Z,3.30
2022-08-31T12:04:55.836Z,3.30
2022-08-31T12:05:55.785Z,3.20
2022-08-31T12:06:55.776Z,3.60
2022-08-31T12:07:55.758Z,3.40
2022-08-31T12:08:55.737Z,3.30
2022-08-31T12:09:55.725Z,3.30
2022-08-31T12:10:55.721Z,3.50
2022-08-31T12:11:55.724Z,3.50
2022-08-31T12:12:55.698Z,3.50
2022-08-31T12:13:55.689Z,3.00
2022-08-31T12:14:55.666Z,3.30
2022-08-31T12:15:55.685Z,3.20
2022-08-31T12:16:55.653Z,2.90
2022-08-31T12:17:55.637Z,3.30
2022-08-31T12:18:55.614Z,3.30
2022-08-31T12:19:59.116Z,3.10
2022-08-31T12:20:55.597Z,3.40
2022-08-31T12:21:55.589Z,3.40
2022-08-31T12:22:55.575Z,3.30
2022-08-31T12:23:55.556Z,3.30
2022-08-31T12:24:55.553Z,2.90
2022-08-31T12:25:55.542Z,3.20
2022-08-31T12:26:55.529Z,3.00
2022-08-31T12:27:55.506Z,3.50
2022-08-31T12:28:55.493Z,3.40
2022-08-31T12:33:27.162Z,3.40
2022-08-31T12:34:27.121Z,3.40
2022-08-31T12:35:27.098Z,3.30
2022-08-31T12:36:27.100Z,3.60
2022-08-31T12:37:27.079Z,3.10
2022-08-31T12:38:27.066Z,4.00
2022-08-31T12:39:27.060Z,3.40
2022-08-31T12:40:27.110Z,3.60
2022-08-31T12:41:27.042Z,3.80
2022-08-31T12:42:27.036Z,3.40
2022-08-31T12:43:27.013Z,3.60
2022-08-31T12:44:26.989Z,3.70
2022-08-31T12:45:26.976Z,3.30
2022-08-31T12:46:27.034Z,3.30
2022-08-31T12:47:26.953Z,3.30
2022-08-31T12:48:26.950Z,2.80
2022-08-31T12:49:26.945Z,3.30
2022-08-31T12:50:26.918Z,3.10
2022-08-31T12:51:26.916Z,3.20
2022-08-31T12:52:26.896Z,3.20
2022-08-31T12:53:26.890Z,3.10
2022-08-31T12:54:26.871Z,3.30
2022-08-31T12:55:26.859Z,3.50
2022-08-31T12:56:26.872Z,3.20
2022-08-31T12:57:27.125Z,3.90
2022-08-31T12:58:26.832Z,3.30
2022-08-31T12:59:40.717Z,3.40
2022-08-31T13:00:26.808Z,3.70
2022-08-31T13:01:26.927Z,3.50
2022-08-31T13:02:27.023Z,3.20
2022-08-31T13:03:26.774Z,3.50
2022-08-31T13:04:26.772Z,3.70
2022-08-31T13:05:26.761Z,3.20
2022-08-31T13:06:26.748Z,3.50
2022-08-31T13:07:26.741Z,3.40
2022-08-31T13:08:26.718Z,3.60
2022-08-31T13:09:26.718Z,3.60
2022-08-31T13:10:26.697Z,3.40
2022-08-31T13:11:33.109Z,3.50
2022-08-31T13:12:26.685Z,3.40
2022-08-31T13:13:26.664Z,3.00
2022-08-31T13:36:47.753Z,3.10
2022-08-31T13:37:47.731Z,3.50
2022-08-31T13:38:47.727Z,3.00
2022-08-31T13:39:47.704Z,3.30
2022-08-31T13:40:47.739Z,2.90
2022-08-31T13:41:47.702Z,3.20
2022-08-31T13:42:47.675Z,3.40
2022-08-31T13:43:47.654Z,2.90
2022-08-31T13:44:47.649Z,3.20
2022-08-31T13:45:47.684Z,3.20
2022-08-31T13:46:47.669Z,3.60
2022-08-31T13:47:57.059Z,2.80
2022-08-31T13:48:47.606Z,3.30
2022-08-31T13:49:47.598Z,3.20
2022-08-31T13:50:51.919Z,3.10
2022-08-31T13:51:47.586Z,3.00
2022-08-31T13:52:59.513Z,3.20
2022-08-31T13:53:47.554Z,3.10
2022-08-31T13:54:47.542Z,3.00
2022-08-31T13:55:47.529Z,3.10
2022-08-31T13:56:47.534Z,2.60
2022-08-31T13:57:47.527Z,2.90
2022-08-31T13:58:47.493Z,3.20
2022-08-31T13:59:47.487Z,3.00
2022-08-31T14:00:47.590Z,3.40
2022-08-31T14:01:47.493Z,2.90
2022-08-31T14:02:47.509Z,3.30
2022-08-31T14:03:47.454Z,2.80
2022-08-31T14:04:47.451Z,3.00
2022-08-31T14:05:47.442Z,2.90
2022-08-31T14:06:47.448Z,2.70
2022-08-31T14:07:47.431Z,2.70
2022-08-31T14:08:47.415Z,2.70
2022-08-31T14:09:47.404Z,2.80
2022-08-31T14:10:47.394Z,3.00
2022-08-31T14:11:47.407Z,2.70
2022-08-31T14:12:47.389Z,3.00
2022-08-31T14:13:47.366Z,3.00
2022-08-31T14:14:47.361Z,3.00
2022-08-31T14:15:47.364Z,2.80
2022-08-31T14:16:52.339Z,2.80
2022-08-31T14:18:24.027Z,3.00
2022-08-31T14:18:47.345Z,2.90
2022-08-31T14:19:47.336Z,3.00
2022-08-31T14:21:10.246Z,2.80
2022-08-31T14:21:47.315Z,2.80
2022-08-31T14:22:47.324Z,2.90
2022-08-31T14:23:47.299Z,2.70
2022-08-31T14:24:47.302Z,2.60
2022-08-31T14:25:47.285Z,2.60
2022-08-31T14:26:47.277Z,2.50
2022-08-31T14:27:47.278Z,2.50
2022-08-31T14:28:47.262Z,2.60
2022-08-31T14:29:47.272Z,2.50
2022-08-31T14:30:47.293Z,2.40
2022-08-31T14:31:47.248Z,2.50
2022-08-31T14:32:47.261Z,2.60
2022-08-31T14:33:47.235Z,2.60
2022-08-31T14:34:47.238Z,2.30
2022-08-31T14:35:47.221Z,2.50
2022-08-31T14:36:47.281Z,2.70
2022-08-31T14:37:47.217Z,2.80
2022-08-31T14:38:47.202Z,2.80
2022-08-31T14:44:51.916Z,2.70
2022-08-31T14:45:51.926Z,2.80
2022-08-31T14:46:51.914Z,3.00
2022-08-31T14:47:51.898Z,2.90
2022-08-31T14:48:51.873Z,2.70
2022-08-31T14:49:51.863Z,2.60
2022-08-31T14:52:10.319Z,3.10
2022-08-31T15:41:24.916Z,2.00
2022-08-31T15:42:24.911Z,2.20
2022-08-31T16:00:22.469Z,2.20
2022-08-31T16:01:22.552Z,2.80
2022-08-31T16:02:22.482Z,2.20
2022-08-31T16:03:22.420Z,2.20
2022-08-31T16:04:22.410Z,2.30
2022-08-31T16:05:22.407Z,2.30
2022-08-31T16:06:22.405Z,2.20
2022-08-31T16:09:15.420Z,2.00
2022-08-31T16:10:19.753Z,2.60
